createdAt,value
2018-07-28T00:01:02.039Z,97277.70
2018-07-28T00:02:09.551Z,97276.66
2018-07-28T00:03:15.386Z,97274.20
2018-07-28T00:04:26.706Z,97271.77
2018-07-28T00:05:37.404Z,97265.64
2018-07-28T00:06:45.107Z,97269.62
2018-07-28T00:07:48.129Z,97262.26
2018-07-28T00:08:57.687Z,97263.31
2018-07-28T00:11:20.777Z,97260.69
2018-07-28T00:12:27.766Z,97259.01
2018-07-28T00:13:37.748Z,97257.05
2018-07-28T00:14:43.416Z,97258.30
2018-07-28T00:15:49.112Z,97257.33
2018-07-28T00:16:52.668Z,97256.58
2018-07-28T00:18:02.545Z,97255.00
2018-07-28T00:19:07.084Z,97255.96
2018-07-28T00:20:11.460Z,97253.19
2018-07-28T00:21:19.518Z,97258.33
2018-07-28T00:22:22.511Z,97253.09
2018-07-28T00:23:26.441Z,97249.02
2018-07-28T00:24:29.398Z,97248.98
2018-07-28T00:25:38.236Z,97246.52
2018-07-28T00:26:42.710Z,97253.36
2018-07-28T00:27:51.268Z,97244.94
2018-07-28T00:29:03.708Z,97252.36
2018-07-28T00:30:12.316Z,97240.41
2018-07-28T00:31:15.477Z,97246.42
2018-07-28T00:32:50.769Z,97241.44
2018-07-28T00:33:54.004Z,97245.00
2018-07-28T00:34:58.520Z,97243.21
2018-07-28T03:50:14.386Z,97089.61
2018-07-28T03:51:17.524Z,97094.39
2018-07-28T03:52:20.540Z,97093.56
2018-07-28T03:53:23.469Z,97092.48
2018-07-28T03:54:26.382Z,97094.23
2018-07-28T03:55:29.640Z,97090.91
2018-07-28T03:56:32.578Z,97089.31
2018-07-28T03:57:36.351Z,97093.59
2018-07-28T03:58:39.279Z,97092.39
2018-07-28T03:59:42.215Z,97094.15
2018-07-28T04:00:45.142Z,97095.20
2018-07-28T04:01:48.355Z,97087.30
2018-07-28T04:02:51.672Z,97091.63
2018-07-28T04:03:54.577Z,97093.41
2018-07-28T04:04:57.528Z,97083.58
2018-07-28T04:06:00.565Z,97080.68
2018-07-28T04:07:03.430Z,97080.03
2018-07-28T04:08:06.677Z,97082.63
2018-07-28T04:09:10.291Z,97082.69
2018-07-28T04:10:13.204Z,97081.08
2018-07-28T04:11:16.075Z,97081.57
2018-07-28T04:12:19.733Z,97086.01
2018-07-28T04:13:22.704Z,97078.77
2018-07-28T04:14:26.055Z,97083.55
2018-07-28T04:15:30.563Z,97085.03
2018-07-28T04:16:33.497Z,97083.63
2018-07-28T04:17:41.581Z,97077.98
2018-07-28T04:18:44.541Z,97082.84
2018-07-28T04:19:47.793Z,97081.95
2018-07-28T04:20:51.031Z,97093.20
2018-07-28T04:21:54.716Z,97103.18
2018-07-28T04:22:57.919Z,97096.41
2018-07-28T04:24:00.853Z,97084.59
2018-07-28T04:25:03.820Z,97089.83
2018-07-28T04:26:06.714Z,97094.36
2018-07-28T04:27:10.617Z,97091.48
2018-07-28T04:28:13.732Z,97092.76
2018-07-28T04:29:16.690Z,97096.78
2018-07-28T04:30:19.598Z,97098.09
2018-07-28T04:31:22.543Z,97088.82
2018-07-28T04:32:25.479Z,97089.64
2018-07-28T04:33:28.739Z,97093.08
2018-07-28T04:34:31.652Z,97094.49
2018-07-28T04:35:34.586Z,97084.39
2018-07-28T04:36:37.558Z,97092.75
2018-07-28T04:37:40.806Z,97087.30
2018-07-28T04:38:43.795Z,97085.77
2018-07-28T04:39:48.580Z,97087.91
2018-07-28T04:40:51.520Z,97090.65
2018-07-28T04:41:54.436Z,97094.84
2018-07-28T04:42:57.340Z,97096.22
2018-07-28T04:44:01.311Z,97099.05
2018-07-28T04:45:04.393Z,97096.30
2018-07-28T04:46:08.429Z,97101.55
2018-07-28T04:47:11.367Z,97101.70
2018-07-28T04:48:14.297Z,97106.30
2018-07-28T04:49:17.259Z,97106.34
2018-07-28T04:50:20.221Z,97097.67
2018-07-28T04:51:23.124Z,97103.46
2018-07-28T04:52:26.326Z,97101.12
2018-07-28T04:53:29.211Z,97098.74
2018-07-28T04:54:32.134Z,97097.86
2018-07-28T04:55:35.597Z,97096.56
2018-07-28T04:56:38.605Z,97096.70
2018-07-28T04:57:41.526Z,97096.77
2018-07-28T04:58:44.733Z,97099.95
2018-07-28T04:59:48.561Z,97099.74
2018-07-28T05:00:51.482Z,97102.77
2018-07-28T05:01:54.731Z,97099.69
2018-07-28T05:02:57.672Z,97100.09
2018-07-28T05:04:01.884Z,97100.65
2018-07-28T05:05:05.121Z,97099.01
2018-07-28T05:06:08.050Z,97098.31
2018-07-28T05:07:11.255Z,97092.77
2018-07-28T05:08:14.792Z,97092.91
2018-07-28T05:09:17.702Z,97097.08
2018-07-28T05:10:20.977Z,97085.98
2018-07-28T05:11:24.311Z,97084.53
2018-07-28T05:12:27.787Z,97083.33
2018-07-28T05:13:32.180Z,97078.58
2018-07-28T05:14:35.451Z,97081.16
2018-07-28T05:15:38.423Z,97081.05
2018-07-28T05:16:41.604Z,97082.08
2018-07-28T05:17:44.824Z,97084.73
2018-07-28T05:18:47.728Z,97086.81
2018-07-28T05:19:50.666Z,97085.99
2018-07-28T05:20:54.209Z,97085.95
2018-07-28T05:21:57.812Z,97078.47
2018-07-28T05:23:01.024Z,97080.44
2018-07-28T05:24:04.421Z,97077.83
2018-07-28T05:25:10.908Z,97071.84
2018-07-28T05:26:13.941Z,97069.72
2018-07-28T05:27:16.953Z,97073.84
2018-07-28T05:28:20.457Z,97073.70
2018-07-28T05:29:23.460Z,97080.87
2018-07-28T05:30:26.698Z,97082.42
2018-07-28T05:31:29.674Z,97080.27
2018-07-28T05:32:32.817Z,97077.84
2018-07-28T05:33:35.821Z,97067.23
2018-07-28T05:34:38.740Z,97068.45
2018-07-28T05:35:41.999Z,97070.38
2018-07-28T05:36:46.046Z,97071.71
2018-07-28T05:37:49.022Z,97069.08
2018-07-28T05:38:52.064Z,97078.41
2018-07-28T05:39:55.895Z,97074.02
2018-07-28T05:40:58.874Z,97079.44
2018-07-28T05:42:02.267Z,97073.77
2018-07-28T05:43:06.974Z,97068.41
2018-07-28T05:44:10.384Z,97068.21
2018-07-28T05:45:13.631Z,97061.88
2018-07-28T05:46:17.582Z,97065.20
2018-07-28T05:47:20.777Z,97062.10
2018-07-28T05:48:24.790Z,97069.30
2018-07-28T05:49:28.531Z,97061.04
2018-07-28T05:50:31.432Z,97062.61
2018-07-28T05:51:34.393Z,97067.44
2018-07-28T05:52:37.353Z,97068.34
2018-07-28T05:53:40.855Z,97063.91
2018-07-28T05:54:43.776Z,97062.61
2018-07-28T05:55:47.433Z,97066.19
2018-07-28T05:56:50.358Z,97063.58
2018-07-28T05:57:53.262Z,97058.38
2018-07-28T05:58:56.325Z,97063.13
2018-07-28T05:59:59.332Z,97059.75
2018-07-28T06:01:02.877Z,97061.85
2018-07-28T06:02:06.583Z,97058.37
2018-07-28T06:03:09.603Z,97057.86
2018-07-28T06:04:12.602Z,97055.39
2018-07-28T06:05:15.534Z,97056.73
2018-07-28T06:06:18.443Z,97059.39
2018-07-28T06:07:21.401Z,97053.28
2018-07-28T06:08:24.640Z,97051.98
2018-07-28T06:09:27.573Z,97053.02
2018-07-28T06:10:30.591Z,97046.55
2018-07-28T06:11:34.468Z,97046.72
2018-07-28T06:12:37.630Z,97043.56
2018-07-28T06:13:40.623Z,97049.82
2018-07-28T06:14:46.680Z,97050.46
2018-07-28T06:15:50.995Z,97053.48
2018-07-28T06:16:53.940Z,97061.36
2018-07-28T06:17:57.830Z,97057.28
2018-07-28T06:19:01.567Z,97057.03
2018-07-28T06:20:04.973Z,97050.66
2018-07-28T06:21:08.508Z,97055.95
2018-07-28T06:22:12.423Z,97051.45
2018-07-28T06:23:15.327Z,97054.08
2018-07-28T06:24:18.298Z,97056.47
2018-07-28T06:25:21.233Z,97053.33
2018-07-28T06:26:24.190Z,97052.44
2018-07-28T06:27:27.418Z,97054.80
2018-07-28T06:28:30.421Z,97051.58
2018-07-28T06:29:33.347Z,97052.37
2018-07-28T06:30:36.278Z,97051.67
2018-07-28T06:31:39.282Z,97049.38
2018-07-28T06:32:42.559Z,97046.52
2018-07-28T06:33:45.841Z,97043.80
2018-07-28T06:34:48.813Z,97038.98
2018-07-28T06:35:51.772Z,97035.31
2018-07-28T06:36:54.697Z,97041.11
2018-07-28T06:37:57.640Z,97042.92
2018-07-28T06:39:00.578Z,97034.50
2018-07-28T06:40:03.940Z,97034.38
2018-07-28T06:41:08.660Z,97032.53
2018-07-28T06:42:11.620Z,97031.11
2018-07-28T06:43:14.580Z,97032.34
2018-07-28T06:44:19.647Z,97030.48
2018-07-28T06:45:24.256Z,97027.28
2018-07-28T06:46:27.947Z,97029.27
2018-07-28T06:47:32.678Z,97027.13
2018-07-28T06:48:37.814Z,97026.46
2018-07-28T06:49:40.778Z,97031.46
2018-07-28T06:50:43.718Z,97035.71
2018-07-28T06:51:47.544Z,97029.09
2018-07-28T06:52:51.360Z,97032.56
2018-07-28T06:53:54.335Z,97031.75
2018-07-28T06:54:57.218Z,97030.98
2018-07-28T06:56:00.152Z,97028.13
2018-07-28T06:57:03.113Z,97027.65
2018-07-28T06:58:07.228Z,97024.35
2018-07-28T06:59:10.148Z,97022.26
2018-07-28T07:00:13.068Z,97022.61
2018-07-28T07:01:16.078Z,97021.39
2018-07-28T07:02:20.641Z,97019.81
2018-07-28T07:03:23.563Z,97016.79
2018-07-28T07:04:27.649Z,97018.80
2018-07-28T07:05:30.897Z,97026.73
2018-07-28T07:06:35.320Z,97028.45
2018-07-28T07:07:40.369Z,97027.89
2018-07-28T07:08:44.275Z,97035.67
2018-07-28T07:09:50.335Z,97027.03
2018-07-28T07:10:54.504Z,97035.35
2018-07-28T07:11:57.795Z,97028.22
2018-07-28T07:13:00.801Z,97032.61
2018-07-28T07:14:03.770Z,97033.23
2018-07-28T07:15:06.953Z,97038.03
2018-07-28T07:16:14.021Z,97045.26
2018-07-28T07:17:17.039Z,97057.58
2018-07-28T07:18:21.547Z,97060.16
2018-07-28T07:19:25.345Z,97058.59
2018-07-28T07:20:32.728Z,97061.64
2018-07-28T07:21:36.420Z,97055.96
2018-07-28T07:22:39.446Z,97058.80
2018-07-28T07:23:42.428Z,97056.89
2018-07-28T07:24:46.625Z,97050.93
2018-07-28T07:25:50.693Z,97061.53
2018-07-28T07:26:55.192Z,97062.36
2018-07-28T07:27:58.136Z,97066.55
2018-07-28T07:29:02.324Z,97074.16
2018-07-28T07:30:05.291Z,97082.58
2018-07-28T07:31:09.559Z,97085.39
2018-07-28T07:32:12.499Z,97073.70
2018-07-28T07:33:19.665Z,97075.99
2018-07-28T07:34:24.499Z,97118.57
2018-07-28T07:35:28.245Z,97112.82
2018-07-28T07:36:34.389Z,97115.86
2018-07-28T07:37:37.936Z,97120.06
2018-07-28T07:38:41.099Z,97135.64
2018-07-28T07:39:44.090Z,97116.70
2018-07-28T07:40:47.174Z,97114.11
2018-07-28T07:41:50.113Z,97151.09
2018-07-28T07:42:56.506Z,97136.85
2018-07-28T07:44:00.559Z,97158.25
2018-07-28T07:45:04.400Z,97166.64
2018-07-28T07:46:08.340Z,97140.20
2018-07-28T07:47:12.416Z,97150.83
2018-07-28T07:48:15.387Z,97142.99
2018-07-28T07:49:18.367Z,97153.33
2018-07-28T07:50:21.670Z,97170.03
2018-07-28T07:51:25.249Z,97176.40
2018-07-28T07:52:28.311Z,97181.11
2018-07-28T07:53:32.232Z,97191.09
2018-07-28T07:54:38.748Z,97174.86
2018-07-28T07:55:41.698Z,97189.81
2018-07-28T07:56:45.230Z,97186.09
2018-07-28T07:57:48.415Z,97185.60
2018-07-28T07:58:52.109Z,97194.70
2018-07-28T07:59:55.074Z,97210.19
2018-07-28T08:00:58.804Z,97210.44
2018-07-28T08:02:01.768Z,97193.44
2018-07-28T08:03:08.182Z,97219.84
2018-07-28T08:04:13.706Z,97237.14
2018-07-28T08:05:16.681Z,97235.23
2018-07-28T08:06:19.678Z,97214.22
2018-07-28T08:07:22.857Z,97223.84
2018-07-28T08:08:27.253Z,97235.38
2018-07-28T08:09:31.689Z,97242.02
2018-07-28T08:10:34.754Z,97239.12
2018-07-28T08:11:38.893Z,97247.12
2018-07-28T08:12:42.531Z,97219.97
2018-07-28T08:13:45.480Z,97247.55
2018-07-28T08:14:48.546Z,97254.09
2018-07-28T08:15:52.425Z,97257.02
2018-07-28T08:16:55.387Z,97254.95
2018-07-28T08:17:58.583Z,97263.08
2018-07-28T08:19:02.426Z,97258.73
2018-07-28T08:20:08.133Z,97270.94
2018-07-28T08:21:11.081Z,97272.50
2018-07-28T08:22:15.400Z,97277.23
2018-07-28T08:23:19.504Z,97280.80
2018-07-28T08:24:25.740Z,97270.38
2018-07-28T08:25:29.523Z,97272.96
2018-07-28T08:26:32.793Z,97268.41
2018-07-28T08:27:36.334Z,97270.20
2018-07-28T08:28:40.168Z,97278.51
2018-07-28T08:29:43.709Z,97279.16
2018-07-28T08:30:46.902Z,97282.73
2018-07-28T08:31:50.379Z,97278.34
2018-07-28T08:32:53.881Z,97289.58
2018-07-28T08:33:56.831Z,97283.55
2018-07-28T08:35:00.997Z,97279.28
2018-07-28T08:36:03.942Z,97277.12
2018-07-28T08:37:07.529Z,97280.47
2018-07-28T08:38:10.431Z,97281.53
2018-07-28T08:39:15.579Z,97282.85
2018-07-28T08:40:19.139Z,97283.34
2018-07-28T08:41:22.365Z,97278.83
2018-07-28T08:42:25.894Z,97273.97
2018-07-28T08:43:28.840Z,97272.01
2018-07-28T08:44:33.141Z,97268.79
2018-07-28T08:45:36.095Z,97267.92
2018-07-28T08:46:39.081Z,97263.13
2018-07-28T08:47:42.401Z,97259.63
2018-07-28T08:48:54.609Z,97265.22
2018-07-28T08:49:57.610Z,97270.30
2018-07-28T08:51:01.366Z,97268.47
2018-07-28T08:52:05.914Z,97275.77
2018-07-28T08:53:10.034Z,97279.55
2018-07-28T08:54:14.431Z,97279.66
2018-07-28T08:55:17.415Z,97277.83
2018-07-28T08:56:21.590Z,97271.66
2018-07-28T08:57:24.559Z,97276.06
2018-07-28T08:58:27.538Z,97265.61
2018-07-28T08:59:31.106Z,97268.82
2018-07-28T09:00:34.330Z,97265.67
2018-07-28T09:01:37.269Z,97270.49
2018-07-28T09:02:40.785Z,97258.88
2018-07-28T09:03:43.755Z,97256.85
2018-07-28T09:04:46.800Z,97258.30
2018-07-28T09:05:49.887Z,97255.33
2018-07-28T09:06:53.096Z,97245.91
2018-07-28T09:07:56.989Z,97242.39
2018-07-28T09:08:59.923Z,97242.62
2018-07-28T09:10:03.860Z,97229.66
2018-07-28T09:11:08.201Z,97229.53
2018-07-28T09:12:13.254Z,97229.67
2018-07-28T09:13:18.499Z,97232.92
2018-07-28T09:14:21.464Z,97236.89
2018-07-28T09:15:24.401Z,97237.16
2018-07-28T09:16:29.105Z,97241.73
2018-07-28T09:17:32.144Z,97248.42
2018-07-28T09:18:35.181Z,97249.80
2018-07-28T09:19:38.401Z,97254.19
2018-07-28T09:20:41.360Z,97258.48
2018-07-28T09:21:44.289Z,97261.23
2018-07-28T09:22:47.305Z,97273.98
2018-07-28T09:23:50.424Z,97270.16
2018-07-28T09:24:57.108Z,97270.27
2018-07-28T09:26:01.593Z,97276.41
2018-07-28T09:27:04.613Z,97274.15
2018-07-28T09:28:08.144Z,97269.69
2018-07-28T09:29:11.194Z,97268.28
2018-07-28T09:30:14.149Z,97256.17
2018-07-28T09:31:18.701Z,97255.14
2018-07-28T09:32:22.041Z,97259.21
2018-07-28T09:33:25.519Z,97256.63
2018-07-28T09:34:28.516Z,97261.12
2018-07-28T09:35:32.160Z,97260.94
2018-07-28T09:36:35.720Z,97257.31
2018-07-28T09:37:39.783Z,97254.04
2018-07-28T09:38:45.702Z,97246.05
2018-07-28T09:39:48.636Z,97247.09
2018-07-28T09:40:52.329Z,97241.52
2018-07-28T09:41:58.209Z,97242.30
2018-07-28T09:43:01.375Z,97249.46
2018-07-28T09:44:04.350Z,97257.50
2018-07-28T09:45:08.492Z,97264.41
2018-07-28T09:46:11.439Z,97259.88
2018-07-28T09:47:14.363Z,97254.64
2018-07-28T09:48:17.272Z,97253.45
2018-07-28T10:05:37.323Z,97254.96
2018-07-28T10:06:41.276Z,97254.11
2018-07-28T10:07:46.741Z,97254.65
2018-07-28T10:08:49.753Z,97256.06
2018-07-28T10:09:54.645Z,97265.09
2018-07-28T10:10:57.601Z,97265.54
2018-07-28T10:12:00.552Z,97262.56
2018-07-28T10:13:03.481Z,97251.14
2018-07-28T10:14:06.462Z,97245.03
2018-07-28T10:15:09.456Z,97248.97
2018-07-28T10:16:13.838Z,97247.02
2018-07-28T10:17:17.981Z,97237.73
2018-07-28T10:18:21.245Z,97241.25
2018-07-28T10:19:24.411Z,97239.68
2018-07-28T10:20:28.431Z,97243.77
2018-07-28T10:21:31.406Z,97241.56
2018-07-28T10:22:35.164Z,97239.62
2018-07-28T10:23:38.142Z,97241.73
2018-07-28T10:24:42.642Z,97252.56
2018-07-28T10:25:47.331Z,97257.16
2018-07-28T10:26:51.567Z,97263.32
2018-07-28T10:27:56.035Z,97259.61
2018-07-28T10:28:59.280Z,97264.42
2018-07-28T10:30:03.017Z,97268.15
2018-07-28T10:31:06.069Z,97271.59
2018-07-28T10:32:10.051Z,97265.23
2018-07-28T10:33:15.417Z,97259.09
2018-07-28T10:34:21.662Z,97258.16
2018-07-28T10:35:26.226Z,97259.73
2018-07-28T10:36:32.301Z,97262.56
2018-07-28T10:37:37.595Z,97264.48
2018-07-28T10:38:41.467Z,97269.69
2018-07-28T10:39:44.591Z,97270.13
2018-07-28T10:40:49.109Z,97268.50
2018-07-28T10:41:52.353Z,97261.70
2018-07-28T10:42:56.308Z,97263.17
2018-07-28T10:44:00.631Z,97258.48
2018-07-28T10:45:04.511Z,97257.44
2018-07-28T10:46:07.451Z,97268.16
2018-07-28T10:47:11.064Z,97263.00
2018-07-28T10:48:14.344Z,97265.34
2018-07-28T10:49:17.285Z,97269.61
2018-07-28T10:50:21.394Z,97269.69
2018-07-28T10:51:24.330Z,97276.06
2018-07-28T10:52:27.304Z,97278.45
2018-07-28T10:53:30.215Z,97282.77
2018-07-28T10:54:34.394Z,97284.62
2018-07-28T10:55:39.078Z,97285.98
2018-07-28T10:56:42.078Z,97286.05
2018-07-28T10:57:46.024Z,97291.76
2018-07-28T10:58:49.031Z,97288.31
2018-07-28T10:59:52.059Z,97287.05
2018-07-28T11:00:56.457Z,97282.59
2018-07-28T11:01:59.452Z,97268.47
2018-07-28T11:03:03.319Z,97268.67
2018-07-28T11:04:06.745Z,97263.13
2018-07-28T11:05:10.698Z,97262.05
2018-07-28T11:06:14.064Z,97263.63
2018-07-28T11:07:18.302Z,97260.26
2018-07-28T11:08:27.484Z,97247.90
2018-07-28T11:09:30.726Z,97247.28
2018-07-28T11:10:35.534Z,97237.33
2018-07-28T11:11:41.701Z,97241.61
2018-07-28T11:12:45.581Z,97245.52
2018-07-28T11:13:52.312Z,97248.81
2018-07-28T11:14:55.240Z,97250.31
2018-07-28T11:16:01.100Z,97246.72
2018-07-28T11:17:06.060Z,97247.28
2018-07-28T11:18:09.021Z,97253.63
2018-07-28T11:19:11.966Z,97249.36
2018-07-28T11:20:15.202Z,97255.17
2018-07-28T11:21:18.362Z,97256.04
2018-07-28T11:22:23.159Z,97256.47
2018-07-28T11:23:27.002Z,97251.66
2018-07-28T11:24:30.455Z,97250.75
2018-07-28T11:25:33.951Z,97244.55
2018-07-28T11:27:46.069Z,97239.17
2018-07-28T11:30:00.615Z,97236.93
2018-07-28T11:31:03.555Z,97237.24
2018-07-28T11:32:07.007Z,97233.39
2018-07-28T11:33:12.064Z,97237.94
2018-07-28T11:34:15.875Z,97232.05
2018-07-28T11:35:18.795Z,97236.31
2018-07-28T11:36:22.478Z,97234.50
2018-07-28T11:37:25.790Z,97240.06
2018-07-28T11:38:31.960Z,97230.97
2018-07-28T11:39:35.091Z,97238.02
2018-07-28T11:40:39.801Z,97239.31
2018-07-28T11:41:44.531Z,97239.38
2018-07-28T11:42:47.775Z,97239.38
2018-07-28T11:43:53.326Z,97236.22
2018-07-28T11:44:57.161Z,97228.86
2018-07-28T11:46:00.273Z,97235.16
2018-07-28T11:47:06.280Z,97232.65
2018-07-28T11:48:09.375Z,97235.10
2018-07-28T11:49:14.539Z,97240.28
2018-07-28T11:50:18.402Z,97237.13
2018-07-28T11:51:23.153Z,97238.12
2018-07-28T11:52:26.746Z,97233.59
2018-07-28T11:53:29.899Z,97240.28
2018-07-28T11:54:35.269Z,97243.59
2018-07-28T11:55:39.961Z,97245.77
2018-07-28T11:56:43.408Z,97246.36
2018-07-28T11:57:46.326Z,97244.63
2018-07-28T11:58:49.247Z,97246.77
2018-07-28T11:59:52.290Z,97247.73
2018-07-28T12:00:55.223Z,97243.57
2018-07-28T12:01:58.242Z,97255.44
2018-07-28T12:03:01.587Z,97255.57
2018-07-28T12:04:05.161Z,97252.29
2018-07-28T12:05:08.629Z,97255.86
2018-07-28T12:07:17.422Z,97249.13
2018-07-28T12:08:20.377Z,97257.55
2018-07-28T12:09:23.702Z,97253.70
2018-07-28T12:10:27.116Z,97254.57
2018-07-28T12:11:30.268Z,97254.57
2018-07-28T12:12:33.758Z,97254.86
2018-07-28T12:13:36.688Z,97249.33
2018-07-28T12:14:40.086Z,97248.39
2018-07-28T12:15:43.601Z,97251.53
2018-07-28T12:16:48.707Z,97248.38
2018-07-28T12:17:51.674Z,97248.95
2018-07-28T12:18:54.590Z,97253.83
2018-07-28T12:19:57.728Z,97256.45
2018-07-28T12:21:00.629Z,97261.56
2018-07-28T12:22:03.873Z,97269.81
2018-07-28T12:23:06.849Z,97275.23
2018-07-28T12:24:11.011Z,97279.96
2018-07-28T12:25:13.945Z,97280.09
2018-07-28T12:26:17.864Z,97279.23
2018-07-28T12:27:22.392Z,97278.63
2018-07-28T12:28:25.645Z,97282.78
2018-07-28T12:29:28.892Z,97283.91
2018-07-28T12:30:31.820Z,97278.13
2018-07-28T12:31:34.736Z,97275.80
2018-07-28T12:32:38.418Z,97277.04
2018-07-28T12:33:41.579Z,97272.49
2018-07-28T12:34:44.813Z,97267.41
2018-07-28T12:35:47.793Z,97276.58
2018-07-28T12:36:50.741Z,97266.06
2018-07-28T12:37:56.804Z,97264.18
2018-07-28T12:38:59.803Z,97271.73
2018-07-28T12:40:03.398Z,97277.92
2018-07-28T12:41:06.680Z,97288.63
2018-07-28T12:42:09.687Z,97288.66
2018-07-28T12:43:12.667Z,97287.95
2018-07-28T12:44:17.014Z,97283.59
2018-07-28T12:45:21.035Z,97288.78
2018-07-28T12:46:23.966Z,97279.89
2018-07-28T12:47:27.239Z,97284.06
2018-07-28T12:48:30.301Z,97279.36
2018-07-28T12:49:34.650Z,97279.27
2018-07-28T12:50:39.014Z,97289.56
2018-07-28T12:51:42.473Z,97300.43
2018-07-28T12:52:45.431Z,97301.82
2018-07-28T12:53:48.378Z,97301.22
2018-07-28T12:54:52.029Z,97305.83
2018-07-28T12:55:55.068Z,97301.30
2018-07-28T12:56:58.022Z,97302.25
2018-07-28T12:58:00.980Z,97297.13
2018-07-28T12:59:03.963Z,97296.31
2018-07-28T13:00:08.535Z,97299.62
2018-07-28T13:01:11.576Z,97302.32
2018-07-28T13:02:14.543Z,97300.21
2018-07-28T13:03:17.682Z,97306.58
2018-07-28T13:04:21.804Z,97307.02
2018-07-28T13:05:25.430Z,97306.58
2018-07-28T13:06:28.639Z,97306.73
2018-07-28T13:07:31.619Z,97308.64
2018-07-28T13:08:34.549Z,97299.93
2018-07-28T13:09:39.191Z,97290.89
2018-07-28T13:10:42.920Z,97291.07
2018-07-28T13:11:45.840Z,97292.90
2018-07-28T13:12:49.172Z,97286.28
2018-07-28T13:13:52.081Z,97287.52
2018-07-28T13:14:55.034Z,97285.22
2018-07-28T13:15:58.580Z,97289.16
2018-07-28T13:17:03.418Z,97288.23
2018-07-28T13:18:07.948Z,97288.48
2018-07-28T13:19:11.443Z,97285.97
2018-07-28T13:20:15.339Z,97291.17
2018-07-28T13:21:18.283Z,97297.62
2018-07-28T13:22:25.030Z,97301.09
2018-07-28T13:23:28.238Z,97303.45
2018-07-28T13:24:31.887Z,97305.47
2018-07-28T13:25:36.543Z,97302.15
2018-07-28T13:26:41.430Z,97300.98
2018-07-28T13:27:45.170Z,97299.93
2018-07-28T13:28:48.141Z,97299.86
2018-07-28T13:29:52.851Z,97293.70
2018-07-28T13:30:57.435Z,97288.50
2018-07-28T13:32:00.860Z,97294.78
2018-07-28T13:33:04.598Z,97287.72
2018-07-28T13:34:08.068Z,97298.15
2018-07-28T13:35:11.061Z,97287.03
2018-07-28T13:36:14.046Z,97286.78
2018-07-28T13:37:17.899Z,97293.63
2018-07-28T13:38:21.198Z,97296.22
2018-07-28T13:39:24.114Z,97294.47
2018-07-28T13:40:27.922Z,97285.05
2018-07-28T13:41:31.689Z,97294.74
2018-07-28T13:42:35.811Z,97300.34
2018-07-28T13:43:39.796Z,97297.58
2018-07-28T13:44:44.362Z,97301.69
2018-07-28T13:45:49.559Z,97298.61
2018-07-28T13:46:53.414Z,97289.96
2018-07-28T13:47:56.766Z,97299.51
2018-07-28T13:49:00.771Z,97305.27
2018-07-28T13:50:04.299Z,97303.80
2018-07-28T13:51:08.060Z,97307.22
2018-07-28T13:52:12.123Z,97301.09
2018-07-28T13:53:18.850Z,97297.95
2018-07-28T13:54:26.784Z,97301.89
2018-07-28T13:55:29.749Z,97298.02
2018-07-28T13:56:37.587Z,97298.77
2018-07-28T13:57:40.971Z,97308.28
2018-07-28T13:58:44.461Z,97297.22
2018-07-28T13:59:47.392Z,97302.22
2018-07-28T14:00:51.539Z,97298.39
2018-07-28T14:01:57.705Z,97308.00
2018-07-28T14:03:00.956Z,97289.24
2018-07-28T14:04:05.358Z,97304.63
2018-07-28T14:05:08.400Z,97292.31
2018-07-28T14:06:13.768Z,97292.98
2018-07-28T14:07:18.734Z,97310.30
2018-07-28T14:08:21.701Z,97289.92
2018-07-28T14:09:25.704Z,97294.16
2018-07-28T14:10:29.500Z,97288.11
2018-07-28T14:11:33.537Z,97287.72
2018-07-28T14:12:36.478Z,97293.22
2018-07-28T14:13:39.490Z,97285.86
2018-07-28T14:14:42.870Z,97291.25
2018-07-28T14:15:45.838Z,97288.12
2018-07-28T14:16:49.948Z,97278.59
2018-07-28T14:17:54.675Z,97279.61
2018-07-28T14:18:58.816Z,97278.41
2018-07-28T14:20:01.767Z,97273.86
2018-07-28T14:21:04.757Z,97269.03
2018-07-28T14:22:07.861Z,97274.61
2018-07-28T14:23:11.845Z,97268.55
2018-07-28T14:24:17.752Z,97253.09
2018-07-28T14:25:20.879Z,97250.36
2018-07-28T14:26:23.918Z,97250.26
2018-07-28T14:27:29.812Z,97254.95
2018-07-28T14:28:33.149Z,97247.22
2018-07-28T14:29:36.157Z,97245.29
2018-07-28T14:30:40.377Z,97257.89
2018-07-28T14:31:44.048Z,97252.38
2018-07-28T14:51:10.607Z,97292.12
2018-07-28T14:52:14.132Z,97296.48
2018-07-28T14:53:17.064Z,97296.09
2018-07-28T14:54:21.981Z,97297.55
2018-07-28T14:55:24.992Z,97298.00
2018-07-28T14:56:28.458Z,97299.91
2018-07-28T14:57:31.692Z,97301.42
2018-07-28T14:58:34.981Z,97304.16
2018-07-28T14:59:37.847Z,97298.94
2018-07-28T15:00:40.785Z,97305.76
2018-07-28T15:01:44.320Z,97299.05
2018-07-28T15:02:47.760Z,97291.12
2018-07-28T15:03:51.582Z,97295.44
2018-07-28T15:04:54.510Z,97289.08
2018-07-28T15:05:57.448Z,97283.09
2018-07-28T15:07:00.400Z,97278.48
2018-07-28T15:08:04.470Z,97286.45
2018-07-28T15:09:07.851Z,97296.38
2018-07-28T15:10:10.780Z,97287.47
2018-07-28T15:11:13.795Z,97290.02
2018-07-28T15:12:19.014Z,97284.72
2018-07-28T15:13:22.538Z,97287.58
2018-07-28T15:14:25.542Z,97280.11
2018-07-28T15:15:28.937Z,97280.16
2018-07-28T15:16:32.703Z,97281.72
2018-07-28T15:17:36.500Z,97288.35
2018-07-28T15:18:42.103Z,97293.16
2018-07-28T15:19:45.039Z,97294.45
2018-07-28T15:20:47.975Z,97295.89
2018-07-28T15:21:51.240Z,97295.22
2018-07-28T15:22:54.301Z,97294.16
2018-07-28T15:23:57.255Z,97284.16
2018-07-28T15:25:00.797Z,97285.00
2018-07-28T15:26:03.748Z,97278.27
2018-07-28T15:27:09.428Z,97287.64
2018-07-28T15:28:12.732Z,97282.38
2018-07-28T15:29:15.689Z,97285.80
2018-07-28T15:30:18.595Z,97286.11
2018-07-28T15:31:22.017Z,97284.72
2018-07-28T15:32:25.110Z,97281.05
2018-07-28T15:33:28.050Z,97281.49
2018-07-28T15:34:31.424Z,97283.50
2018-07-28T15:35:34.331Z,97278.52
2018-07-28T15:36:37.280Z,97275.35
2018-07-28T15:37:40.269Z,97279.73
2018-07-28T15:38:44.779Z,97281.68
2018-07-28T15:39:47.713Z,97284.88
2018-07-28T15:40:52.845Z,97286.23
2018-07-28T15:41:56.000Z,97281.58
2018-07-28T15:44:10.927Z,97276.28
2018-07-28T15:45:13.855Z,97277.50
2018-07-28T15:46:17.607Z,97277.98
2018-07-28T15:47:22.053Z,97283.99
2018-07-28T15:48:25.033Z,97285.58
2018-07-28T15:49:28.686Z,97283.55
2018-07-28T15:50:35.173Z,97277.99
2018-07-28T15:51:40.499Z,97278.48
2018-07-28T15:52:43.430Z,97289.20
2018-07-28T15:53:49.661Z,97279.91
2018-07-28T15:54:56.275Z,97283.33
2018-07-28T15:55:59.220Z,97277.13
2018-07-28T15:57:02.186Z,97278.84
2018-07-28T15:58:06.420Z,97269.79
2018-07-28T15:59:10.697Z,97266.90
2018-07-28T16:00:15.610Z,97272.45
2018-07-28T16:01:18.861Z,97271.67
2018-07-28T16:02:22.863Z,97275.64
2018-07-28T16:03:28.512Z,97276.27
2018-07-28T16:04:33.663Z,97278.86
2018-07-28T16:05:37.309Z,97276.61
2018-07-28T16:06:41.896Z,97283.94
2018-07-28T16:07:45.781Z,97260.80
2018-07-28T16:08:49.826Z,97276.15
2018-07-28T16:09:54.623Z,97274.28
2018-07-28T16:10:59.653Z,97267.30
2018-07-28T16:12:02.648Z,97267.68
2018-07-28T16:13:09.392Z,97262.69
2018-07-28T16:14:12.357Z,97266.30
2018-07-28T16:15:17.378Z,97267.91
2018-07-28T16:16:21.332Z,97267.84
2018-07-28T16:17:26.616Z,97269.26
2018-07-28T16:18:31.467Z,97267.29
2018-07-28T16:19:34.801Z,97265.68
2018-07-28T16:20:38.582Z,97275.17
2018-07-28T16:21:42.605Z,97280.28
2018-07-28T16:23:54.073Z,97283.39
2018-07-28T16:25:00.400Z,97296.30
2018-07-28T16:26:04.500Z,97297.48